sensor_id;sensor_type;location;lat;lon;timestamp;temperature;humidity
65766;SHT31;52915;53.718;19.946;2022-08-01T00:04:13;13.18;87.31
65766;SHT31;52915;53.718;19.946;2022-08-01T00:09:17;13.15;87.21
65766;SHT31;52915;53.718;19.946;2022-08-01T00:14:26;13.12;87.19
65766;SHT31;52915;53.718;19.946;2022-08-01T00:19:34;13.07;87.68
65766;SHT31;52915;53.718;19.946;2022-08-01T00:24:39;13.03;87.94
65766;SHT31;52915;53.718;19.946;2022-08-01T00:29:43;12.98;88.04
65766;SHT31;52915;53.718;19.946;2022-08-01T00:35:09;12.93;87.99
65766;SHT31;52915;53.718;19.946;2022-08-01T00:40:16;12.88;88.06
65766;SHT31;52915;53.718;19.946;2022-08-01T00:45:20;12.85;88.24
65766;SHT31;52915;53.718;19.946;2022-08-01T00:50:25;12.85;88.21
65766;SHT31;52915;53.718;19.946;2022-08-01T00:55:32;12.76;88.11
65766;SHT31;52915;53.718;19.946;2022-08-01T01:00:36;12.72;88.04
65766;SHT31;52915;53.718;19.946;2022-08-01T01:06:44;12.64;88.06
65766;SHT31;52915;53.718;19.946;2022-08-01T01:17:09;12.52;88.24
65766;SHT31;52915;53.718;19.946;2022-08-01T01:22:21;12.56;88.61
65766;SHT31;52915;53.718;19.946;2022-08-01T01:33:25;12.54;89.16
65766;SHT31;52915;53.718;19.946;2022-08-01T01:38:40;12.58;89.46
65766;SHT31;52915;53.718;19.946;2022-08-01T01:43:49;12.66;89.99
65766;SHT31;52915;53.718;19.946;2022-08-01T01:48:54;12.82;90.21
65766;SHT31;52915;53.718;19.946;2022-08-01T01:54:00;12.98;90.60
65766;SHT31;52915;53.718;19.946;2022-08-01T01:59:07;13.13;90.74
65766;SHT31;52915;53.718;19.946;2022-08-01T02:04:12;13.28;91.01
65766;SHT31;52915;53.718;19.946;2022-08-01T02:09:18;13.42;91.38
65766;SHT31;52915;53.718;19.946;2022-08-01T02:14:24;13.56;91.47
65766;SHT31;52915;53.718;19.946;2022-08-01T02:19:33;13.67;91.68
65766;SHT31;52915;53.718;19.946;2022-08-01T02:24:52;13.78;91.78
65766;SHT31;52915;53.718;19.946;2022-08-01T02:30:06;13.89;91.77
65766;SHT31;52915;53.718;19.946;2022-08-01T02:35:20;13.98;91.68
65766;SHT31;52915;53.718;19.946;2022-08-01T02:40:32;14.08;91.82
65766;SHT31;52915;53.718;19.946;2022-08-01T02:45:42;14.14;91.68
65766;SHT31;52915;53.718;19.946;2022-08-01T02:50:54;14.22;91.51
65766;SHT31;52915;53.718;19.946;2022-08-01T02:56:07;14.29;91.57
65766;SHT31;52915;53.718;19.946;2022-08-01T03:01:14;14.36;91.68
65766;SHT31;52915;53.718;19.946;2022-08-01T03:06:21;14.43;91.69
65766;SHT31;52915;53.718;19.946;2022-08-01T03:11:29;14.51;91.79
65766;SHT31;52915;53.718;19.946;2022-08-01T03:16:36;14.61;91.88
65766;SHT31;52915;53.718;19.946;2022-08-01T03:21:46;14.71;92.00
65766;SHT31;52915;53.718;19.946;2022-08-01T03:26:54;14.82;92.15
65766;SHT31;52915;53.718;19.946;2022-08-01T03:32:01;14.92;92.15
65766;SHT31;52915;53.718;19.946;2022-08-01T03:42:32;15.11;92.12
65766;SHT31;52915;53.718;19.946;2022-08-01T03:47:42;15.18;91.96
65766;SHT31;52915;53.718;19.946;2022-08-01T03:52:50;15.24;91.89
65766;SHT31;52915;53.718;19.946;2022-08-01T03:57:58;15.29;91.86
65766;SHT31;52915;53.718;19.946;2022-08-01T04:03:10;15.34;91.78
65766;SHT31;52915;53.718;19.946;2022-08-01T04:08:16;15.39;91.81
65766;SHT31;52915;53.718;19.946;2022-08-01T04:13:22;15.46;91.70
65766;SHT31;52915;53.718;19.946;2022-08-01T04:18:30;15.50;91.55
65766;SHT31;52915;53.718;19.946;2022-08-01T04:23:39;15.55;91.38
65766;SHT31;52915;53.718;19.946;2022-08-01T04:28:53;15.62;91.25
65766;SHT31;52915;53.718;19.946;2022-08-01T04:34:00;15.70;91.19
65766;SHT31;52915;53.718;19.946;2022-08-01T04:39:09;15.78;91.11
65766;SHT31;52915;53.718;19.946;2022-08-01T04:44:15;15.83;91.08
65766;SHT31;52915;53.718;19.946;2022-08-01T04:49:20;15.90;90.94
65766;SHT31;52915;53.718;19.946;2022-08-01T04:54:29;16.01;90.79
65766;SHT31;52915;53.718;19.946;2022-08-01T04:59:41;16.14;90.46
65766;SHT31;52915;53.718;19.946;2022-08-01T05:04:48;16.32;90.09
65766;SHT31;52915;53.718;19.946;2022-08-01T05:09:54;16.45;89.71
65766;SHT31;52915;53.718;19.946;2022-08-01T05:14:59;16.55;89.40
65766;SHT31;52915;53.718;19.946;2022-08-01T05:20:04;16.64;89.03
65766;SHT31;52915;53.718;19.946;2022-08-01T05:25:14;16.71;88.69
65766;SHT31;52915;53.718;19.946;2022-08-01T05:30:22;16.76;88.29
65766;SHT31;52915;53.718;19.946;2022-08-01T05:35:27;16.87;88.15
65766;SHT31;52915;53.718;19.946;2022-08-01T05:40:51;17.01;87.75
65766;SHT31;52915;53.718;19.946;2022-08-01T05:45:55;17.16;87.39
65766;SHT31;52915;53.718;19.946;2022-08-01T05:51:04;17.32;87.06
65766;SHT31;52915;53.718;19.946;2022-08-01T05:56:08;17.50;86.71
65766;SHT31;52915;53.718;19.946;2022-08-01T06:01:13;17.59;86.38
65766;SHT31;52915;53.718;19.946;2022-08-01T06:06:18;17.63;86.18
65766;SHT31;52915;53.718;19.946;2022-08-01T06:11:27;17.62;86.03
65766;SHT31;52915;53.718;19.946;2022-08-01T06:16:31;17.65;85.89
65766;SHT31;52915;53.718;19.946;2022-08-01T06:21:36;17.79;85.61
65766;SHT31;52915;53.718;19.946;2022-08-01T06:26:41;17.93;85.11
65766;SHT31;52915;53.718;19.946;2022-08-01T06:31:45;18.16;84.24
65766;SHT31;52915;53.718;19.946;2022-08-01T06:36:51;18.40;83.24
65766;SHT31;52915;53.718;19.946;2022-08-01T06:41:56;18.63;82.51
65766;SHT31;52915;53.718;19.946;2022-08-01T06:47:01;18.94;81.79
65766;SHT31;52915;53.718;19.946;2022-08-01T06:52:06;19.09;81.05
65766;SHT31;52915;53.718;19.946;2022-08-01T06:57:11;19.38;80.57
65766;SHT31;52915;53.718;19.946;2022-08-01T07:02:15;19.81;79.43
65766;SHT31;52915;53.718;19.946;2022-08-01T07:07:20;20.19;78.38
65766;SHT31;52915;53.718;19.946;2022-08-01T07:12:24;20.46;76.79
65766;SHT31;52915;53.718;19.946;2022-08-01T07:17:28;20.81;75.57
65766;SHT31;52915;53.718;19.946;2022-08-01T07:22:33;20.95;74.39
65766;SHT31;52915;53.718;19.946;2022-08-01T07:27:38;21.14;73.61
65766;SHT31;52915;53.718;19.946;2022-08-01T07:32:43;21.52;72.50
65766;SHT31;52915;53.718;19.946;2022-08-01T07:37:48;21.85;71.10
65766;SHT31;52915;53.718;19.946;2022-08-01T07:42:53;21.89;70.04
65766;SHT31;52915;53.718;19.946;2022-08-01T07:48:01;22.20;69.50
65766;SHT31;52915;53.718;19.946;2022-08-01T07:53:11;22.44;68.03
65766;SHT31;52915;53.718;19.946;2022-08-01T07:58:15;22.66;67.24
65766;SHT31;52915;53.718;19.946;2022-08-01T08:03:21;22.84;64.56
65766;SHT31;52915;53.718;19.946;2022-08-01T08:08:25;22.94;64.17
65766;SHT31;52915;53.718;19.946;2022-08-01T08:13:30;23.31;63.33
65766;SHT31;52915;53.718;19.946;2022-08-01T08:18:34;23.61;61.75
65766;SHT31;52915;53.718;19.946;2022-08-01T08:23:39;23.63;61.71
65766;SHT31;52915;53.718;19.946;2022-08-01T08:29:02;23.27;60.50
65766;SHT31;52915;53.718;19.946;2022-08-01T08:34:07;23.42;61.23
65766;SHT31;52915;53.718;19.946;2022-08-01T08:39:12;23.74;60.08
65766;SHT31;52915;53.718;19.946;2022-08-01T08:44:16;23.63;59.10
65766;SHT31;52915;53.718;19.946;2022-08-01T08:49:25;23.98;58.87
65766;SHT31;52915;53.718;19.946;2022-08-01T08:54:38;24.50;57.25
65766;SHT31;52915;53.718;19.946;2022-08-01T08:59:48;25.11;55.76
65766;SHT31;52915;53.718;19.946;2022-08-01T09:04:57;25.65;54.20
65766;SHT31;52915;53.718;19.946;2022-08-01T09:10:02;25.80;54.19
65766;SHT31;52915;53.718;19.946;2022-08-01T09:15:13;25.84;53.32
65766;SHT31;52915;53.718;19.946;2022-08-01T09:20:24;25.98;52.54
65766;SHT31;52915;53.718;19.946;2022-08-01T09:25:49;25.76;52.24
65766;SHT31;52915;53.718;19.946;2022-08-01T09:36:44;25.79;51.03
65766;SHT31;52915;53.718;19.946;2022-08-01T09:42:02;26.16;48.98
65766;SHT31;52915;53.718;19.946;2022-08-01T09:47:38;26.13;48.99
65766;SHT31;52915;53.718;19.946;2022-08-01T09:52:48;26.44;48.10
65766;SHT31;52915;53.718;19.946;2022-08-01T09:57:59;26.50;47.63
65766;SHT31;52915;53.718;19.946;2022-08-01T10:03:25;26.35;47.90
65766;SHT31;52915;53.718;19.946;2022-08-01T10:08:44;26.67;48.76
65766;SHT31;52915;53.718;19.946;2022-08-01T10:13:51;27.09;48.15
65766;SHT31;52915;53.718;19.946;2022-08-01T10:18:56;27.47;47.44
65766;SHT31;52915;53.718;19.946;2022-08-01T10:24:04;27.66;46.65
65766;SHT31;52915;53.718;19.946;2022-08-01T10:29:12;27.78;46.01
65766;SHT31;52915;53.718;19.946;2022-08-01T10:34:43;27.76;45.28
65766;SHT31;52915;53.718;19.946;2022-08-01T10:39:51;27.78;45.54
65766;SHT31;52915;53.718;19.946;2022-08-01T10:45:20;27.81;45.22
65766;SHT31;52915;53.718;19.946;2022-08-01T10:50:31;27.77;45.29
65766;SHT31;52915;53.718;19.946;2022-08-01T10:56:04;27.60;45.42
65766;SHT31;52915;53.718;19.946;2022-08-01T11:06:20;27.54;45.47
65766;SHT31;52915;53.718;19.946;2022-08-01T11:12:03;27.72;44.97
65766;SHT31;52915;53.718;19.946;2022-08-01T11:17:34;27.57;43.69
65766;SHT31;52915;53.718;19.946;2022-08-01T11:39:10;28.23;41.00
65766;SHT31;52915;53.718;19.946;2022-08-01T11:44:19;28.01;40.66
65766;SHT31;52915;53.718;19.946;2022-08-01T12:00:13;28.42;40.83
65766;SHT31;52915;53.718;19.946;2022-08-01T12:05:22;28.68;40.41
65766;SHT31;52915;53.718;19.946;2022-08-01T12:10:29;28.79;39.52
65766;SHT31;52915;53.718;19.946;2022-08-01T12:15:51;28.73;39.31
65766;SHT31;52915;53.718;19.946;2022-08-01T12:21:02;28.89;40.52
65766;SHT31;52915;53.718;19.946;2022-08-01T12:26:08;29.25;40.02
65766;SHT31;52915;53.718;19.946;2022-08-01T12:31:34;29.10;38.54
65766;SHT31;52915;53.718;19.946;2022-08-01T12:36:39;28.83;39.01
65766;SHT31;52915;53.718;19.946;2022-08-01T12:41:43;28.81;38.17
65766;SHT31;52915;53.718;19.946;2022-08-01T12:46:48;28.59;38.10
65766;SHT31;52915;53.718;19.946;2022-08-01T12:51:54;28.45;38.42
65766;SHT31;52915;53.718;19.946;2022-08-01T12:57:00;28.49;37.92
65766;SHT31;52915;53.718;19.946;2022-08-01T13:02:08;28.61;38.24
65766;SHT31;52915;53.718;19.946;2022-08-01T13:07:14;28.89;38.47
65766;SHT31;52915;53.718;19.946;2022-08-01T13:12:18;29.28;38.74
65766;SHT31;52915;53.718;19.946;2022-08-01T13:17:29;29.65;38.26
65766;SHT31;52915;53.718;19.946;2022-08-01T13:22:43;29.77;37.63
65766;SHT31;52915;53.718;19.946;2022-08-01T13:27:47;29.67;37.85
65766;SHT31;52915;53.718;19.946;2022-08-01T13:33:12;29.62;37.28
65766;SHT31;52915;53.718;19.946;2022-08-01T13:38:20;29.43;37.47
65766;SHT31;52915;53.718;19.946;2022-08-01T13:43:46;29.56;38.00
65766;SHT31;52915;53.718;19.946;2022-08-01T13:49:01;29.47;37.31
65766;SHT31;52915;53.718;19.946;2022-08-01T13:54:18;29.67;37.37
65766;SHT31;52915;53.718;19.946;2022-08-01T13:59:22;29.50;37.47
65766;SHT31;52915;53.718;19.946;2022-08-01T14:04:26;29.62;37.91
65766;SHT31;52915;53.718;19.946;2022-08-01T14:09:32;29.66;37.24
65766;SHT31;52915;53.718;19.946;2022-08-01T14:14:47;29.84;37.63
65766;SHT31;52915;53.718;19.946;2022-08-01T14:19:51;30.04;37.58
65766;SHT31;52915;53.718;19.946;2022-08-01T14:24:56;30.20;37.38
65766;SHT31;52915;53.718;19.946;2022-08-01T14:30:05;30.15;36.22
65766;SHT31;52915;53.718;19.946;2022-08-01T14:35:11;29.95;36.53
65766;SHT31;52915;53.718;19.946;2022-08-01T14:40:15;30.05;36.72
65766;SHT31;52915;53.718;19.946;2022-08-01T14:45:23;30.09;36.60
65766;SHT31;52915;53.718;19.946;2022-08-01T14:50:28;30.28;36.75
65766;SHT31;52915;53.718;19.946;2022-08-01T14:55:34;30.46;36.81
65766;SHT31;52915;53.718;19.946;2022-08-01T15:00:43;30.61;36.47
65766;SHT31;52915;53.718;19.946;2022-08-01T15:05:49;30.61;35.90
65766;SHT31;52915;53.718;19.946;2022-08-01T15:10:56;30.63;36.10
65766;SHT31;52915;53.718;19.946;2022-08-01T15:16:00;31.02;36.13
65766;SHT31;52915;53.718;19.946;2022-08-01T15:21:05;32.27;35.19
65766;SHT31;52915;53.718;19.946;2022-08-01T15:26:12;33.07;34.01
65766;SHT31;52915;53.718;19.946;2022-08-01T15:31:19;33.59;32.51
65766;SHT31;52915;53.718;19.946;2022-08-01T15:36:23;33.69;32.56
65766;SHT31;52915;53.718;19.946;2022-08-01T15:41:28;34.22;32.33
65766;SHT31;52915;53.718;19.946;2022-08-01T15:46:32;34.61;31.76
65766;SHT31;52915;53.718;19.946;2022-08-01T15:51:37;34.73;31.85
65766;SHT31;52915;53.718;19.946;2022-08-01T15:56:41;34.53;31.79
65766;SHT31;52915;53.718;19.946;2022-08-01T16:01:46;34.18;32.87
65766;SHT31;52915;53.718;19.946;2022-08-01T16:06:53;33.59;33.26
65766;SHT31;52915;53.718;19.946;2022-08-01T16:11:57;33.40;33.83
65766;SHT31;52915;53.718;19.946;2022-08-01T16:17:02;33.06;34.15
65766;SHT31;52915;53.718;19.946;2022-08-01T16:22:06;32.55;34.90
65766;SHT31;52915;53.718;19.946;2022-08-01T16:27:11;31.86;35.54
65766;SHT31;52915;53.718;19.946;2022-08-01T16:32:15;31.57;36.11
65766;SHT31;52915;53.718;19.946;2022-08-01T16:37:32;30.77;37.28
65766;SHT31;52915;53.718;19.946;2022-08-01T16:42:37;29.55;38.81
65766;SHT31;52915;53.718;19.946;2022-08-01T16:47:41;28.67;40.40
65766;SHT31;52915;53.718;19.946;2022-08-01T16:52:45;27.96;42.20
65766;SHT31;52915;53.718;19.946;2022-08-01T16:57:50;27.42;43.21
65766;SHT31;52915;53.718;19.946;2022-08-01T17:02:55;27.00;44.31
65766;SHT31;52915;53.718;19.946;2022-08-01T17:07:59;26.89;44.86
65766;SHT31;52915;53.718;19.946;2022-08-01T17:13:04;27.02;44.70
65766;SHT31;52915;53.718;19.946;2022-08-01T17:18:11;27.00;44.66
65766;SHT31;52915;53.718;19.946;2022-08-01T17:23:16;26.95;44.91
65766;SHT31;52915;53.718;19.946;2022-08-01T17:28:21;26.68;45.58
65766;SHT31;52915;53.718;19.946;2022-08-01T17:33:25;26.15;46.95
65766;SHT31;52915;53.718;19.946;2022-08-01T17:38:47;25.66;47.97
65766;SHT31;52915;53.718;19.946;2022-08-01T17:43:52;25.40;48.49
65766;SHT31;52915;53.718;19.946;2022-08-01T17:48:57;25.10;49.17
65766;SHT31;52915;53.718;19.946;2022-08-01T17:54:04;24.85;49.99
65766;SHT31;52915;53.718;19.946;2022-08-01T17:59:08;24.62;50.81
65766;SHT31;52915;53.718;19.946;2022-08-01T18:04:13;24.30;51.54
65766;SHT31;52915;53.718;19.946;2022-08-01T18:09:17;24.06;52.15
65766;SHT31;52915;53.718;19.946;2022-08-01T18:14:22;23.82;52.90
65766;SHT31;52915;53.718;19.946;2022-08-01T18:19:42;23.59;53.37
65766;SHT31;52915;53.718;19.946;2022-08-01T18:24:48;23.44;53.74
65766;SHT31;52915;53.718;19.946;2022-08-01T18:29:52;23.29;54.10
65766;SHT31;52915;53.718;19.946;2022-08-01T18:34:57;23.11;54.94
65766;SHT31;52915;53.718;19.946;2022-08-01T18:40:04;22.87;55.93
65766;SHT31;52915;53.718;19.946;2022-08-01T18:45:10;22.61;57.21
65766;SHT31;52915;53.718;19.946;2022-08-01T18:50:19;22.40;58.12
65766;SHT31;52915;53.718;19.946;2022-08-01T18:55:26;22.21;59.02
65766;SHT31;52915;53.718;19.946;2022-08-01T19:00:31;22.01;59.98
65766;SHT31;52915;53.718;19.946;2022-08-01T19:05:36;21.76;61.26
65766;SHT31;52915;53.718;19.946;2022-08-01T19:10:40;21.66;61.65
65766;SHT31;52915;53.718;19.946;2022-08-01T19:15:45;21.63;62.17
65766;SHT31;52915;53.718;19.946;2022-08-01T19:20:49;21.56;62.90
65766;SHT31;52915;53.718;19.946;2022-08-01T19:25:59;21.48;63.17
65766;SHT31;52915;53.718;19.946;2022-08-01T19:31:10;21.32;63.85
65766;SHT31;52915;53.718;19.946;2022-08-01T19:36:17;21.17;64.11
65766;SHT31;52915;53.718;19.946;2022-08-01T19:41:22;21.19;64.61
65766;SHT31;52915;53.718;19.946;2022-08-01T19:46:27;21.06;65.46
65766;SHT31;52915;53.718;19.946;2022-08-01T19:51:33;20.96;65.40
65766;SHT31;52915;53.718;19.946;2022-08-01T19:56:45;20.89;65.14
65766;SHT31;52915;53.718;19.946;2022-08-01T20:01:52;20.89;65.03
65766;SHT31;52915;53.718;19.946;2022-08-01T20:06:57;20.88;65.17
65766;SHT31;52915;53.718;19.946;2022-08-01T20:12:01;20.78;65.82
65766;SHT31;52915;53.718;19.946;2022-08-01T20:17:06;20.61;66.81
65766;SHT31;52915;53.718;19.946;2022-08-01T20:22:11;20.39;67.60
65766;SHT31;52915;53.718;19.946;2022-08-01T20:27:17;20.20;68.13
65766;SHT31;52915;53.718;19.946;2022-08-01T20:32:27;20.18;68.06
65766;SHT31;52915;53.718;19.946;2022-08-01T20:37:39;20.10;68.56
65766;SHT31;52915;53.718;19.946;2022-08-01T20:43:05;19.94;69.44
65766;SHT31;52915;53.718;19.946;2022-08-01T20:48:12;19.77;70.11
65766;SHT31;52915;53.718;19.946;2022-08-01T20:53:19;19.61;71.00
65766;SHT31;52915;53.718;19.946;2022-08-01T20:58:26;19.51;70.96
65766;SHT31;52915;53.718;19.946;2022-08-01T21:04:41;19.49;70.82
65766;SHT31;52915;53.718;19.946;2022-08-01T21:10:06;19.39;70.71
65766;SHT31;52915;53.718;19.946;2022-08-01T21:15:17;19.38;70.51
65766;SHT31;52915;53.718;19.946;2022-08-01T21:20:34;19.26;71.08
65766;SHT31;52915;53.718;19.946;2022-08-01T21:25:48;18.99;72.08
65766;SHT31;52915;53.718;19.946;2022-08-01T21:30:56;18.82;72.61
65766;SHT31;52915;53.718;19.946;2022-08-01T21:36:02;18.77;72.90
65766;SHT31;52915;53.718;19.946;2022-08-01T21:41:09;18.62;73.37
65766;SHT31;52915;53.718;19.946;2022-08-01T21:46:14;18.40;73.92
65766;SHT31;52915;53.718;19.946;2022-08-01T21:57:06;18.16;74.29
65766;SHT31;52915;53.718;19.946;2022-08-01T22:02:34;18.04;74.77
65766;SHT31;52915;53.718;19.946;2022-08-01T22:07:49;17.91;75.26
65766;SHT31;52915;53.718;19.946;2022-08-01T22:12:58;17.80;75.39
65766;SHT31;52915;53.718;19.946;2022-08-01T22:18:03;17.74;75.42
65766;SHT31;52915;53.718;19.946;2022-08-01T22:23:07;17.71;75.30
65766;SHT31;52915;53.718;19.946;2022-08-01T22:28:16;17.59;75.58
65766;SHT31;52915;53.718;19.946;2022-08-01T22:33:22;17.47;75.71
65766;SHT31;52915;53.718;19.946;2022-08-01T22:38:27;17.38;75.81
65766;SHT31;52915;53.718;19.946;2022-08-01T22:43:41;17.27;75.96
65766;SHT31;52915;53.718;19.946;2022-08-01T22:49:14;17.13;76.11
65766;SHT31;52915;53.718;19.946;2022-08-01T22:54:24;17.02;76.10
65766;SHT31;52915;53.718;19.946;2022-08-01T22:59:55;16.91;76.89
65766;SHT31;52915;53.718;19.946;2022-08-01T23:05:10;16.80;77.63
65766;SHT31;52915;53.718;19.946;2022-08-01T23:10:21;16.77;77.61
65766;SHT31;52915;53.718;19.946;2022-08-01T23:15:28;16.75;77.60
65766;SHT31;52915;53.718;19.946;2022-08-01T23:20:37;16.72;77.57
65766;SHT31;52915;53.718;19.946;2022-08-01T23:25:42;16.61;77.89
65766;SHT31;52915;53.718;19.946;2022-08-01T23:30:50;16.46;78.37
65766;SHT31;52915;53.718;19.946;2022-08-01T23:35:56;16.47;78.30
65766;SHT31;52915;53.718;19.946;2022-08-01T23:41:00;16.46;78.19
65766;SHT31;52915;53.718;19.946;2022-08-01T23:46:04;16.44;78.29
65766;SHT31;52915;53.718;19.946;2022-08-01T23:51:08;16.38;78.51
65766;SHT31;52915;53.718;19.946;2022-08-01T23:56:26;16.25;79.14
